Bookmark and Share
Track history (hours):
 

Sy Liara

Last reported at 2014-Apr-23 12:28 UTC. Time now 2014-Apr-24 04:21 UTC.
Position N 38°50' E 001°23'.

Length 30 m.

Type: Sailing vessel. MMSI: 235068934.

NotesDate/timePositionNaut miles runAvg speedWind from/ knotsBaromVisibWave heightAir tempDewpointWater temp
2014-Apr-23 12:28N 38°50' E 001°23'3 2.7
2014-Apr-23 11:21N 38°52' E 001°26'11 0.5
2014-Apr-22 13:33N 38°57' E 001°38'10 9.9
2014-Apr-22 12:31N 39°03' E 001°49'9 9.5
2014-Apr-22 11:33N 39°09' E 001°59'9 9.1
2014-Apr-22 10:33N 39°14' E 002°08'9 8.8
2014-Apr-22 09:32N 39°19' E 002°18'9 8.8
2014-Apr-22 08:33N 39°24' E 002°27'9 8.6
2014-Apr-22 07:33N 39°30' E 002°35'5 5.1
2014-Apr-22 06:33N 39°34' E 002°38'0 0.0
2014-Apr-22 05:33N 39°34' E 002°38'0 0.0
2014-Apr-22 04:30N 39°34' E 002°38'0 0.0
2014-Apr-22 03:30N 39°34' E 002°38'0 0.0
2014-Apr-22 02:33N 39°34' E 002°38'0 0.0
2014-Apr-22 01:34N 39°34' E 002°38'0 0.0
2014-Apr-22 00:34N 39°34' E 002°38'0 0.0
2014-Apr-21 23:34N 39°34' E 002°38'0 0.0
2014-Apr-21 22:31N 39°34' E 002°38'0 0.0
2014-Apr-21 21:31N 39°34' E 002°38'0 0.0
2014-Apr-21 20:31N 39°34' E 002°38'0 0.0
2014-Apr-21 19:31N 39°34' E 002°38'0 0.0
2014-Apr-21 11:31N 39°34' E 002°38'0 0.0
2014-Apr-21 10:31N 39°34' E 002°38'0 0.0
2014-Apr-21 06:31N 39°34' E 002°38'0 0.0
2014-Apr-21 05:31N 39°34' E 002°38'0 0.0
2014-Apr-21 04:31N 39°34' E 002°38'0 0.0
2014-Apr-21 03:31N 39°34' E 002°38'0 0.0
2014-Apr-21 02:31N 39°34' E 002°38'0 0.0
2014-Apr-21 01:31N 39°34' E 002°38'0 0.0
2014-Apr-21 00:31N 39°34' E 002°38'0 0.0
2014-Apr-20 23:31N 39°34' E 002°38'0 0.0
2014-Apr-20 22:31N 39°34' E 002°38'0 0.0
2014-Apr-20 12:31N 39°34' E 002°38'0 0.0
2014-Apr-19 18:28N 39°34' E 002°38'0 0.0
2014-Apr-19 17:13N 39°34' E 002°38'0 0.0
2014-Apr-19 16:31N 39°34' E 002°38'0 0.0
2014-Apr-19 12:16N 39°34' E 002°38'0 0.0
2014-Apr-19 11:31N 39°34' E 002°38'0 0.0
2014-Apr-19 10:31N 39°34' E 002°38'0 0.0
2014-Apr-19 09:25N 39°34' E 002°38'0 0.0
2014-Apr-19 08:31N 39°34' E 002°38'0 0.0
2014-Apr-19 07:31N 39°34' E 002°38'0 0.0
2014-Apr-19 06:31N 39°34' E 002°38'0 0.0
2014-Apr-19 05:31N 39°34' E 002°38'0 0.0
2014-Apr-19 04:31N 39°34' E 002°38'0 0.0
2014-Apr-19 03:31N 39°34' E 002°38'0 0.0
2014-Apr-19 02:31N 39°34' E 002°38'0 0.0
2014-Apr-19 01:31N 39°34' E 002°38'0 0.0
2014-Apr-19 00:31N 39°34' E 002°38'0 0.0
2014-Apr-18 23:31N 39°34' E 002°38'0 0.0
2014-Apr-18 22:31N 39°34' E 002°38'0 0.0
2014-Apr-18 21:31N 39°34' E 002°38'0 0.0
2014-Apr-18 20:31N 39°34' E 002°38'0 0.0
2014-Apr-18 19:31N 39°34' E 002°38'0 0.0
2014-Apr-18 17:31N 39°34' E 002°38'0 0.0
2014-Apr-18 16:31N 39°34' E 002°38'0 0.0
2014-Apr-18 15:31N 39°34' E 002°38'0 0.0
2014-Apr-18 14:31N 39°34' E 002°38'0 0.0
2014-Apr-18 13:31N 39°34' E 002°38'0 0.0
2014-Apr-18 12:31N 39°34' E 002°38'0 0.0
2014-Apr-18 11:31N 39°34' E 002°38'0 0.0
2014-Apr-18 10:31N 39°34' E 002°38'0 0.0
2014-Apr-18 09:31N 39°34' E 002°38'0 0.0
2014-Apr-18 08:31N 39°34' E 002°38'0 0.0
2014-Apr-18 07:31N 39°34' E 002°38'0 0.0
2014-Apr-18 06:31N 39°34' E 002°38'0 0.0
2014-Apr-18 05:31N 39°34' E 002°38'0 0.0
2014-Apr-18 04:31N 39°34' E 002°38'0 0.0
2014-Apr-18 03:31N 39°34' E 002°38'0 0.0
2014-Apr-18 02:31N 39°34' E 002°38'0 0.0
2014-Apr-18 01:31N 39°34' E 002°38'0 0.0
2014-Apr-18 00:31N 39°34' E 002°38'0 0.0
2014-Apr-17 23:31N 39°34' E 002°38'0 0.0
2014-Apr-17 22:31N 39°34' E 002°38'0 0.0
2014-Apr-17 21:31N 39°34' E 002°38'0 0.0
2014-Apr-17 20:31N 39°34' E 002°38'0 0.0
2014-Apr-17 16:10N 39°34' E 002°38'0 0.0
2014-Apr-17 15:31N 39°34' E 002°38'0 0.0
2014-Apr-17 14:31N 39°34' E 002°38'2 2.4
2014-Apr-17 13:33N 39°32' E 002°39'4 3.6
2014-Apr-17 12:33N 39°28' E 002°37'4 3.5
2014-Apr-17 11:33N 39°31' E 002°40'3 2.6
2014-Apr-17 10:33N 39°34' E 002°38'0 0.0
2014-Apr-17 09:33N 39°34' E 002°38'0 0.0
2014-Apr-17 08:33N 39°34' E 002°38'0 0.0
2014-Apr-17 07:33N 39°34' E 002°38'0 0.0
2014-Apr-17 06:33N 39°34' E 002°38'0 0.0
2014-Apr-17 05:33N 39°34' E 002°38'0 0.0
2014-Apr-17 04:33N 39°34' E 002°38'0 0.0
2014-Apr-17 03:33N 39°34' E 002°38'0 0.0
2014-Apr-17 02:33N 39°34' E 002°38'0 0.0
2014-Apr-17 01:33N 39°34' E 002°38'0 0.0
2014-Apr-17 00:33N 39°34' E 002°38'0 0.0
2014-Apr-16 23:33N 39°34' E 002°38'0 0.0
2014-Apr-16 22:33N 39°34' E 002°38'0 0.0
2014-Apr-16 21:33N 39°34' E 002°38'0 0.0
2014-Apr-16 20:33N 39°34' E 002°38'0 0.0
2014-Apr-16 19:33N 39°34' E 002°38'0 0.0
2014-Apr-16 18:33N 39°34' E 002°38'0 0.0
2014-Apr-16 15:33N 39°34' E 002°38'0 0.0
2014-Apr-16 14:33N 39°34' E 002°38'0 0.0
2014-Apr-16 12:33N 39°34' E 002°38'0 0.0
2014-Apr-16 11:33N 39°34' E 002°38'0 0.0
2014-Apr-16 10:33N 39°34' E 002°38'0 0.0
2014-Apr-16 09:33N 39°34' E 002°38'0 0.0
2014-Apr-16 08:33N 39°34' E 002°38'0 0.0
2014-Apr-16 07:33N 39°34' E 002°38'0 0.0
2014-Apr-16 06:33N 39°34' E 002°38'0 0.0
2014-Apr-16 05:33N 39°34' E 002°38'0 0.0
2014-Apr-16 04:33N 39°34' E 002°38'0 0.0
2014-Apr-16 03:33N 39°34' E 002°38'0 0.0
2014-Apr-16 02:33N 39°34' E 002°38'0 0.0
2014-Apr-16 01:33N 39°34' E 002°38'0 0.0
2014-Apr-16 00:33N 39°34' E 002°38'0 0.0
2014-Apr-15 23:33N 39°34' E 002°38'0 0.0
2014-Apr-15 22:33N 39°34' E 002°38'0 0.0
2014-Apr-15 21:33N 39°34' E 002°38'0 0.0
2014-Apr-15 20:33N 39°34' E 002°38'0 0.0
2014-Apr-15 19:33N 39°34' E 002°38'0 0.0
2014-Apr-15 18:33N 39°34' E 002°38'0 0.0
2014-Apr-15 16:27N 39°34' E 002°38'0 0.0
2014-Apr-15 15:33N 39°34' E 002°38'0 0.0
2014-Apr-15 14:33N 39°34' E 002°38'0 0.0
2014-Apr-15 12:34N 39°34' E 002°38'0 0.0
2014-Apr-15 11:34N 39°34' E 002°38'0 0.0
2014-Apr-15 10:31N 39°34' E 002°38'0 0.0
2014-Apr-15 09:34N 39°34' E 002°38'0 0.0
2014-Apr-15 08:34N 39°34' E 002°38'0 0.0
2014-Apr-15 07:34N 39°34' E 002°38'0 0.0
2014-Apr-15 06:34N 39°34' E 002°38'0 0.0
2014-Apr-15 05:34N 39°34' E 002°38'0 0.0
2014-Apr-15 03:34N 39°34' E 002°38'0 0.0
2014-Apr-15 02:34N 39°34' E 002°38'0 0.0
2014-Apr-15 01:34N 39°34' E 002°38'0 0.0
2014-Apr-15 00:34N 39°34' E 002°38'0 0.0
2014-Apr-14 23:34N 39°34' E 002°38'0 0.0
2014-Apr-14 22:34N 39°34' E 002°38'0 0.0
2014-Apr-14 21:34N 39°34' E 002°38'0 0.0
2014-Apr-14 20:34N 39°34' E 002°38'0 0.0
2014-Apr-14 19:34N 39°34' E 002°38'0 0.0
2014-Apr-14 18:31N 39°34' E 002°38'0 0.0
2014-Apr-14 17:31N 39°34' E 002°38'0 0.0
2014-Apr-14 16:31N 39°34' E 002°38'0 0.0
2014-Apr-14 15:31N 39°34' E 002°38'0 0.0
2014-Apr-14 14:31N 39°34' E 002°38'0 0.0
2014-Apr-14 13:31N 39°34' E 002°38'0 0.0
2014-Apr-14 11:31N 39°34' E 002°38'0 0.0
2014-Apr-14 10:31N 39°34' E 002°38'0 0.0
2014-Apr-14 09:31N 39°34' E 002°38'0 0.0
2014-Apr-14 08:31N 39°34' E 002°38'0 0.0
2014-Apr-14 07:31N 39°34' E 002°38'0 0.0
2014-Apr-14 06:31N 39°34' E 002°38'0 0.0
2014-Apr-14 05:31N 39°34' E 002°38'0 0.0
2014-Apr-13 22:31N 39°34' E 002°38'0 0.0
2014-Apr-13 21:31N 39°34' E 002°38'0 0.0
2014-Apr-13 20:31N 39°34' E 002°38'0 0.0
2014-Apr-13 19:31N 39°34' E 002°38'0 0.0
2014-Apr-13 18:31N 39°34' E 002°38'0 0.0
2014-Apr-13 17:31N 39°34' E 002°38'0 0.0
2014-Apr-13 16:31N 39°34' E 002°38'0 0.0
2014-Apr-13 15:31N 39°34' E 002°38'0 0.0
2014-Apr-13 14:31N 39°34' E 002°38'0 0.0
2014-Apr-13 13:31N 39°34' E 002°38'0 0.0
2014-Apr-13 12:31N 39°34' E 002°38'  

Dump ship's entire track history

sailing weather and tide predictions

Sy Liara — 2BSK4 — position and weather